Terminal Aerodrome Forecast
Issued by NWS Cleveland, OH

Home | Current Version | Previous Version | Graphics & Text | Print | Product List | Glossary On
Versions: 1 2 3 4 5 6 7 8 9 10 11 12 13 14 15 16 17 18 19 20 21 22
000
FTUS41 KCLE 150200 AAA
TAFTOL
TAF AMD
KTOL 150230Z 1503/1524 00000KT P6SM SCT100
      TEMPO 1509/1513 5SM BR
     FM151300 22005KT P6SM SCT100 BKN250
     FM151700 23008KT P6SM SCT045 OVC080
     FM151900 25008KT P6SM -RA OVC045
     FM152200 27008KT 4SM -RA BR OVC030=

USA.gov is the U.S. government's official web portal to all federal, state and local government web resources and services.